Time;durP1;ratioP1;P1;durP2;ratioP2;P2;SDS_P1;SDS_P2;PMS_P1;PMS_P2;Temp;Humidity;BMP_temperature;BMP_pressure;BME280_temperature;BME280_humidity;BME280_pressure;Samples;Min_cycle;Max_cycle;Signal;HPM_P1;HPM_P2
2023/06/13 00:02:23;;;;;;;9.20;4.85;;;;;;;;;;4363211;32;20163;-78
2023/06/13 00:04:51;;;;;;;8.50;5.80;;;;;;;;;;4362424;32;20047;-78
2023/06/13 00:07:16;;;;;;;5.37;4.45;;;;;;;;;;4361713;32;20046;-78
2023/06/13 00:09:41;;;;;;;7.68;5.25;;;;;;;;;;4361202;32;20102;-77
2023/06/13 00:12:09;;;;;;;9.03;5.13;;;;;;;;;;4362751;32;20077;-79
2023/06/13 00:14:35;;;;;;;12.45;5.87;;;;;;;;;;4362403;32;20131;-77
2023/06/13 00:17:01;;;;;;;7.93;5.30;;;;;;;;;;4348198;32;20062;-79
2023/06/13 00:19:28;;;;;;;8.65;5.57;;;;;;;;;;4351915;32;20119;-78
2023/06/13 00:21:56;;;;;;;8.38;4.95;;;;;;;;;;4344818;33;20091;-78
2023/06/13 00:24:21;;;;;;;7.37;5.15;;;;;;;;;;4349397;33;20063;-78
2023/06/13 00:26:46;;;;;;;8.40;4.60;;;;;;;;;;4347684;33;20032;-78
2023/06/13 00:29:11;;;;;;;7.32;5.18;;;;;;;;;;4359130;32;20124;-77
2023/06/13 00:31:37;;;;;;;5.87;4.50;;;;;;;;;;4354490;32;20081;-78
2023/06/13 00:34:02;;;;;;;8.30;4.70;;;;;;;;;;4360342;32;20586;-78
2023/06/13 00:36:27;;;;;;;9.93;4.85;;;;;;;;;;4361444;32;20174;-78
2023/06/13 00:38:55;;;;;;;6.60;4.75;;;;;;;;;;4362753;32;20085;-78
2023/06/13 00:41:21;;;;;;;7.18;4.55;;;;;;;;;;4367302;32;20070;-78
2023/06/13 00:43:46;;;;;;;5.60;3.85;;;;;;;;;;4370979;32;20406;-79
2023/06/13 00:46:13;;;;;;;8.30;4.82;;;;;;;;;;4368082;32;20022;-78
2023/06/13 00:48:40;;;;;;;8.18;4.53;;;;;;;;;;4365207;32;20036;-77
2023/06/13 00:51:05;;;;;;;15.55;4.97;;;;;;;;;;4364189;32;20059;-79
2023/06/13 00:53:31;;;;;;;8.27;5.20;;;;;;;;;;4358960;33;20058;-78
2023/06/13 00:55:58;;;;;;;6.55;4.53;;;;;;;;;;4360779;32;20307;-78
2023/06/13 00:58:23;;;;;;;10.45;4.80;;;;;;;;;;4361738;32;20137;-78
2023/06/13 01:00:49;;;;;;;9.57;4.60;;;;;;;;;;4360316;32;20051;-78
2023/06/13 01:03:15;;;;;;;5.53;4.28;;;;;;;;;;4363956;32;20081;-78
2023/06/13 01:05:40;;;;;;;9.45;4.85;;;;;;;;;;4363944;32;20066;-79
2023/06/13 01:08:10;;;;;;;9.27;5.22;;;;;;;;;;4363087;32;20051;-77
2023/06/13 01:10:36;;;;;;;7.62;4.57;;;;;;;;;;4362755;32;20023;-77
2023/06/13 01:13:07;;;;;;;13.20;5.37;;;;;;;;;;4363838;32;20138;-77
2023/06/13 01:15:34;;;;;;;7.50;4.45;;;;;;;;;;4362859;32;20072;-77
2023/06/13 01:18:00;;;;;;;8.02;5.03;;;;;;;;;;4357940;32;20027;-78
2023/06/13 01:20:30;;;;;;;6.25;4.53;;;;;;;;;;4349973;33;20036;-79
2023/06/13 01:23:08;;;;;;;7.68;4.50;;;;;;;;;;4348552;32;20103;-77
2023/06/13 01:25:43;;;;;;;8.73;4.03;;;;;;;;;;4347866;32;20066;-77
2023/06/13 01:28:13;;;;;;;8.48;4.97;;;;;;;;;;4349465;32;20082;-77
2023/06/13 01:30:39;;;;;;;7.32;4.50;;;;;;;;;;4349140;32;20039;-78
2023/06/13 01:33:04;;;;;;;9.40;4.97;;;;;;;;;;4362946;32;20059;-78
2023/06/13 01:35:30;;;;;;;8.48;4.53;;;;;;;;;;4364938;32;20093;-78
2023/06/13 01:37:56;;;;;;;7.35;4.80;;;;;;;;;;4364692;32;20390;-79
2023/06/13 01:40:21;;;;;;;6.95;4.80;;;;;;;;;;4370950;32;20118;-78
2023/06/13 01:42:46;;;;;;;10.85;5.50;;;;;;;;;;4366296;32;20073;-78
2023/06/13 01:45:12;;;;;;;9.10;4.80;;;;;;;;;;4356523;33;20024;-78
2023/06/13 01:47:51;;;;;;;7.87;4.55;;;;;;;;;;4357624;32;20058;-78
2023/06/13 01:50:22;;;;;;;6.75;4.53;;;;;;;;;;4351540;32;20031;-78
2023/06/13 01:52:53;;;;;;;7.62;4.43;;;;;;;;;;4348644;32;20088;-78
2023/06/13 01:55:35;;;;;;;8.77;4.53;;;;;;;;;;4349123;32;20366;-78
2023/06/13 01:58:03;;;;;;;6.20;4.47;;;;;;;;;;4349377;32;20040;-78
2023/06/13 02:00:28;;;;;;;9.82;4.65;;;;;;;;;;4347370;33;20040;-78
2023/06/13 02:02:55;;;;;;;8.13;4.87;;;;;;;;;;4347734;33;20386;-78
2023/06/13 02:05:20;;;;;;;9.88;5.03;;;;;;;;;;4349091;32;20061;-79
2023/06/13 02:07:45;;;;;;;7.28;4.82;;;;;;;;;;4349162;33;20394;-79
2023/06/13 02:10:11;;;;;;;6.87;4.87;;;;;;;;;;4348857;33;20087;-77
2023/06/13 02:12:36;;;;;;;5.60;4.40;;;;;;;;;;4346030;33;20132;-78
2023/06/13 02:15:01;;;;;;;7.17;4.57;;;;;;;;;;4347467;33;20394;-78
2023/06/13 02:17:26;;;;;;;9.27;4.95;;;;;;;;;;4350041;32;20159;-79
2023/06/13 02:19:52;;;;;;;6.75;5.62;;;;;;;;;;4355967;32;20035;-78
2023/06/13 02:22:17;;;;;;;8.80;4.95;;;;;;;;;;4364451;32;20097;-78
2023/06/13 02:24:42;;;;;;;9.03;4.87;;;;;;;;;;4363439;32;20148;-78
2023/06/13 02:27:08;;;;;;;8.43;4.60;;;;;;;;;;4361935;32;20594;-78
2023/06/13 02:29:35;;;;;;;8.30;5.07;;;;;;;;;;4348819;32;20226;-78
2023/06/13 02:32:00;;;;;;;10.73;5.03;;;;;;;;;;4345657;33;20067;-78
2023/06/13 02:34:25;;;;;;;7.50;5.03;;;;;;;;;;4353518;32;20090;-78
2023/06/13 02:36:50;;;;;;;8.65;5.53;;;;;;;;;;4364363;32;20377;-78
2023/06/13 02:39:15;;;;;;;11.30;5.37;;;;;;;;;;4364005;32;20036;-78
2023/06/13 02:41:40;;;;;;;7.87;4.80;;;;;;;;;;4363756;32;20128;-78
2023/06/13 02:44:06;;;;;;;7.95;5.50;;;;;;;;;;4361512;32;20027;-78
2023/06/13 02:46:31;;;;;;;5.97;4.75;;;;;;;;;;4362137;32;20436;-78
2023/06/13 02:48:56;;;;;;;5.20;4.15;;;;;;;;;;4362029;32;20031;-79
2023/06/13 02:51:21;;;;;;;7.35;5.00;;;;;;;;;;4367392;32;20028;-78
2023/06/13 02:53:46;;;;;;;10.10;5.30;;;;;;;;;;4365230;32;20409;-78
2023/06/13 02:56:12;;;;;;;6.03;4.97;;;;;;;;;;4364161;32;20090;-78
2023/06/13 02:58:37;;;;;;;10.38;5.03;;;;;;;;;;4362901;32;20448;-79
2023/06/13 03:01:02;;;;;;;7.50;5.00;;;;;;;;;;4346682;32;20126;-78
2023/06/13 03:03:27;;;;;;;8.18;5.15;;;;;;;;;;4346254;32;20132;-78
2023/06/13 03:05:56;;;;;;;9.32;5.82;;;;;;;;;;4347173;33;20107;-78
2023/06/13 03:08:21;;;;;;;10.20;5.62;;;;;;;;;;4348144;33;20035;-79
2023/06/13 03:10:48;;;;;;;10.85;5.22;;;;;;;;;;4347345;32;20024;-78
2023/06/13 03:13:13;;;;;;;6.00;4.82;;;;;;;;;;4347159;33;20514;-78
2023/06/13 03:15:38;;;;;;;8.43;4.78;;;;;;;;;;4348620;32;20036;-77
2023/06/13 03:18:04;;;;;;;9.40;5.20;;;;;;;;;;4347610;33;20043;-78
2023/06/13 03:20:30;;;;;;;9.60;5.95;;;;;;;;;;4347987;32;20086;-78
2023/06/13 03:22:55;;;;;;;8.38;5.00;;;;;;;;;;4346998;33;20086;-78
2023/06/13 03:25:20;;;;;;;6.87;5.03;;;;;;;;;;4344826;32;20438;-77
2023/06/13 03:27:45;;;;;;;8.35;5.70;;;;;;;;;;4347582;33;20024;-78
2023/06/13 03:30:11;;;;;;;7.33;5.47;;;;;;;;;;4349451;33;20114;-80
2023/06/13 03:32:36;;;;;;;9.27;4.90;;;;;;;;;;4350939;32;20124;-79
2023/06/13 03:35:02;;;;;;;8.82;4.90;;;;;;;;;;4348962;33;20062;-77
2023/06/13 03:37:28;;;;;;;7.37;5.12;;;;;;;;;;4348004;32;20064;-78
2023/06/13 03:39:53;;;;;;;7.20;4.47;;;;;;;;;;4347433;33;20481;-78
2023/06/13 03:42:18;;;;;;;9.13;5.47;;;;;;;;;;4348991;33;20079;-78
2023/06/13 03:44:46;;;;;;;11.27;5.78;;;;;;;;;;4348045;33;20082;-79
2023/06/13 03:47:12;;;;;;;7.78;4.87;;;;;;;;;;4348826;33;20031;-78
2023/06/13 03:49:37;;;;;;;7.32;5.20;;;;;;;;;;4347821;32;20073;-79
2023/06/13 03:52:03;;;;;;;8.48;5.50;;;;;;;;;;4345906;33;20055;-78
2023/06/13 03:54:28;;;;;;;7.80;4.90;;;;;;;;;;4346652;32;20077;-79
2023/06/13 03:56:53;;;;;;;7.62;5.15;;;;;;;;;;4348807;33;20128;-79
2023/06/13 03:59:18;;;;;;;8.43;5.25;;;;;;;;;;4344777;33;20421;-79
2023/06/13 04:01:43;;;;;;;10.07;6.03;;;;;;;;;;4346147;32;20028;-80
2023/06/13 04:04:09;;;;;;;9.93;5.30;;;;;;;;;;4346309;32;20124;-79
2023/06/13 04:06:34;;;;;;;9.45;5.00;;;;;;;;;;4347948;33;20147;-78
2023/06/13 04:08:59;;;;;;;10.38;4.70;;;;;;;;;;4347664;33;20054;-78
2023/06/13 04:11:25;;;;;;;11.98;4.90;;;;;;;;;;4348143;33;20074;-78
2023/06/13 04:13:50;;;;;;;6.85;4.80;;;;;;;;;;4349898;33;20047;-78
2023/06/13 04:16:15;;;;;;;6.85;5.15;;;;;;;;;;4348323;33;20043;-78
2023/06/13 04:18:43;;;;;;;14.23;5.73;;;;;;;;;;4347252;33;20402;-79
2023/06/13 04:21:08;;;;;;;7.68;5.20;;;;;;;;;;4345257;33;20162;-77
2023/06/13 04:23:33;;;;;;;10.57;5.45;;;;;;;;;;4345846;33;20066;-78
2023/06/13 04:26:02;;;;;;;9.43;5.57;;;;;;;;;;4352529;33;20060;-79
2023/06/13 04:28:29;;;;;;;7.53;5.10;;;;;;;;;;4359733;33;20299;-78
2023/06/13 04:30:56;;;;;;;10.13;5.15;;;;;;;;;;4360806;32;20090;-78
2023/06/13 04:33:22;;;;;;;7.60;4.90;;;;;;;;;;4360969;32;20057;-78
2023/06/13 04:35:49;;;;;;;10.88;5.47;;;;;;;;;;4360582;32;20039;-79
2023/06/13 04:38:16;;;;;;;9.40;5.68;;;;;;;;;;4360448;32;20087;-79
2023/06/13 04:40:41;;;;;;;11.05;5.07;;;;;;;;;;4360874;32;20368;-78
2023/06/13 04:43:09;;;;;;;10.30;5.65;;;;;;;;;;4360586;33;20087;-78
2023/06/13 04:45:35;;;;;;;7.25;5.35;;;;;;;;;;4360372;33;20082;-78
2023/06/13 04:48:01;;;;;;;9.82;5.43;;;;;;;;;;4360640;32;20039;-78
2023/06/13 04:50:27;;;;;;;11.25;6.22;;;;;;;;;;4358760;33;20522;-78
2023/06/13 04:52:53;;;;;;;10.48;6.10;;;;;;;;;;4347998;32;20078;-80
2023/06/13 04:55:21;;;;;;;12.93;5.70;;;;;;;;;;4344854;33;20330;-77
2023/06/13 04:57:46;;;;;;;13.52;6.18;;;;;;;;;;4351226;33;20028;-78
2023/06/13 05:00:11;;;;;;;12.77;6.53;;;;;;;;;;4348603;33;20058;-78
2023/06/13 05:02:38;;;;;;;10.73;5.60;;;;;;;;;;4347169;33;20054;-78
2023/06/13 05:05:04;;;;;;;9.05;5.95;;;;;;;;;;4354205;33;20071;-77
2023/06/13 05:07:30;;;;;;;8.20;5.60;;;;;;;;;;4347134;32;20032;-78
2023/06/13 05:09:55;;;;;;;11.27;6.03;;;;;;;;;;4349522;33;20400;-77
2023/06/13 05:12:22;;;;;;;9.98;5.75;;;;;;;;;;4365108;32;20028;-78
2023/06/13 05:14:47;;;;;;;13.23;6.60;;;;;;;;;;4366669;32;20032;-78
2023/06/13 05:17:14;;;;;;;10.33;6.13;;;;;;;;;;4361793;32;20063;-78
2023/06/13 05:19:40;;;;;;;10.70;6.03;;;;;;;;;;4354820;32;20132;-78
2023/06/13 05:22:05;;;;;;;13.02;6.60;;;;;;;;;;4344542;33;20024;-78
2023/06/13 05:24:31;;;;;;;7.82;6.28;;;;;;;;;;4345072;33;20044;-78
2023/06/13 05:26:57;;;;;;;11.00;5.80;;;;;;;;;;4345794;33;20036;-77
2023/06/13 05:29:23;;;;;;;9.07;5.55;;;;;;;;;;4343682;33;20051;-77
2023/06/13 05:31:48;;;;;;;9.48;5.78;;;;;;;;;;4345290;33;20040;-78
2023/06/13 05:34:13;;;;;;;15.33;6.43;;;;;;;;;;4344199;33;20390;-77
2023/06/13 05:36:39;;;;;;;10.73;5.53;;;;;;;;;;4345836;33;20143;-77
2023/06/13 05:39:04;;;;;;;10.27;6.32;;;;;;;;;;4345877;33;20049;-77
2023/06/13 05:41:29;;;;;;;9.05;5.32;;;;;;;;;;4344948;33;20460;-77
2023/06/13 05:43:55;;;;;;;15.50;6.30;;;;;;;;;;4345538;32;20057;-78
2023/06/13 05:46:20;;;;;;;10.68;6.03;;;;;;;;;;4344976;33;20422;-76
2023/06/13 05:48:45;;;;;;;10.32;5.28;;;;;;;;;;4345287;33;20054;-77
2023/06/13 05:51:10;;;;;;;9.30;6.03;;;;;;;;;;4346892;33;20027;-76
2023/06/13 05:53:35;;;;;;;9.40;6.30;;;;;;;;;;4347619;33;20074;-79
2023/06/13 05:56:01;;;;;;;12.25;5.75;;;;;;;;;;4348562;32;20040;-77
2023/06/13 05:58:26;;;;;;;9.23;5.60;;;;;;;;;;4347207;32;20088;-79
2023/06/13 06:00:52;;;;;;;12.82;5.95;;;;;;;;;;4348239;32;20032;-79
2023/06/13 06:03:17;;;;;;;7.75;5.55;;;;;;;;;;4351403;33;20031;-79
2023/06/13 06:05:43;;;;;;;12.05;5.62;;;;;;;;;;4347796;32;20050;-79
2023/06/13 06:08:08;;;;;;;9.23;6.07;;;;;;;;;;4346274;32;20425;-79
2023/06/13 06:10:33;;;;;;;11.50;5.90;;;;;;;;;;4347619;33;20132;-79
2023/06/13 06:12:58;;;;;;;7.90;5.63;;;;;;;;;;4347438;32;20093;-80
2023/06/13 06:15:23;;;;;;;13.68;6.25;;;;;;;;;;4349693;32;20164;-79
2023/06/13 06:17:50;;;;;;;12.32;6.18;;;;;;;;;;4350749;33;20050;-78
2023/06/13 06:20:16;;;;;;;8.23;6.18;;;;;;;;;;4352942;32;20044;-77
2023/06/13 06:22:41;;;;;;;12.48;6.35;;;;;;;;;;4344585;33;20051;-78
2023/06/13 06:25:08;;;;;;;9.05;5.45;;;;;;;;;;4364709;32;20039;-77
2023/06/13 06:27:33;;;;;;;10.15;5.95;;;;;;;;;;4355990;32;20101;-77
2023/06/13 06:29:59;;;;;;;8.65;5.47;;;;;;;;;;4338402;33;20052;-77
2023/06/13 06:32:24;;;;;;;10.63;5.47;;;;;;;;;;4333322;33;20464;-78
2023/06/13 06:34:49;;;;;;;9.63;5.53;;;;;;;;;;4331516;33;20058;-78
2023/06/13 06:37:14;;;;;;;6.30;5.22;;;;;;;;;;4331244;33;20035;-77
2023/06/13 06:39:39;;;;;;;10.73;5.22;;;;;;;;;;4333686;33;20134;-77
2023/06/13 06:42:05;;;;;;;6.37;5.50;;;;;;;;;;4332444;33;20039;-77
2023/06/13 06:44:30;;;;;;;13.38;5.53;;;;;;;;;;4332206;33;20204;-77
2023/06/13 06:46:55;;;;;;;7.15;6.07;;;;;;;;;;4333888;33;20031;-77
2023/06/13 06:49:20;;;;;;;11.47;5.30;;;;;;;;;;4330731;33;20079;-77
2023/06/13 06:51:45;;;;;;;9.45;5.72;;;;;;;;;;4337383;33;20131;-78
2023/06/13 06:54:11;;;;;;;9.48;5.70;;;;;;;;;;4355066;33;20156;-79
2023/06/13 06:56:36;;;;;;;9.48;5.32;;;;;;;;;;4363563;32;20044;-78
2023/06/13 06:59:01;;;;;;;9.18;5.75;;;;;;;;;;4363527;32;20027;-79
2023/06/13 07:01:26;;;;;;;8.27;5.18;;;;;;;;;;4364262;32;20036;-77
2023/06/13 07:03:52;;;;;;;10.95;5.37;;;;;;;;;;4364326;32;20032;-78
2023/06/13 07:06:17;;;;;;;12.18;5.90;;;;;;;;;;4364944;32;20382;-77
2023/06/13 07:08:42;;;;;;;10.65;6.18;;;;;;;;;;4350126;32;20430;-79
2023/06/13 07:11:07;;;;;;;7.83;5.17;;;;;;;;;;4347415;32;20032;-78
2023/06/13 07:13:33;;;;;;;7.83;4.00;;;;;;;;;;4346485;32;20704;-78
2023/06/13 07:15:59;;;;;;;5.57;4.40;;;;;;;;;;4344861;33;20214;-78
2023/06/13 07:18:25;;;;;;;10.02;5.10;;;;;;;;;;4346062;33;20051;-77
2023/06/13 07:20:50;;;;;;;15.98;5.03;;;;;;;;;;4345981;33;20032;-78
2023/06/13 07:23:15;;;;;;;8.60;4.73;;;;;;;;;;4348950;33;20107;-78
2023/06/13 07:25:41;;;;;;;10.38;4.70;;;;;;;;;;4360787;32;20169;-77
2023/06/13 07:28:06;;;;;;;9.82;5.00;;;;;;;;;;4360782;32;20036;-76
2023/06/13 07:30:31;;;;;;;7.15;4.95;;;;;;;;;;4362347;32;20058;-78
2023/06/13 07:32:57;;;;;;;11.75;5.05;;;;;;;;;;4362201;32;20031;-78
2023/06/13 07:35:23;;;;;;;7.60;4.80;;;;;;;;;;4361142;32;20047;-77
2023/06/13 07:37:49;;;;;;;9.73;4.80;;;;;;;;;;4360720;32;20200;-77
2023/06/13 07:40:15;;;;;;;11.65;4.85;;;;;;;;;;4361524;32;20039;-76
2023/06/13 07:42:40;;;;;;;7.32;5.93;;;;;;;;;;4362113;32;20053;-79
2023/06/13 07:45:05;;;;;;;7.53;4.22;;;;;;;;;;4346942;32;20047;-77
2023/06/13 07:47:31;;;;;;;7.47;4.70;;;;;;;;;;4346362;32;20142;-78
2023/06/13 07:49:56;;;;;;;15.52;4.93;;;;;;;;;;4346215;33;20032;-78
2023/06/13 07:52:21;;;;;;;10.63;4.87;;;;;;;;;;4349390;32;20093;-78
2023/06/13 07:54:46;;;;;;;7.12;4.80;;;;;;;;;;4347877;32;20402;-78
2023/06/13 07:57:12;;;;;;;11.82;5.22;;;;;;;;;;4357492;32;20372;-76
2023/06/13 07:59:37;;;;;;;7.82;4.93;;;;;;;;;;4358708;32;20077;-78
2023/06/13 08:02:03;;;;;;;5.83;4.83;;;;;;;;;;4362875;32;20085;-77
2023/06/13 08:04:28;;;;;;;7.80;4.35;;;;;;;;;;4364010;32;20178;-77
2023/06/13 08:06:53;;;;;;;6.13;4.80;;;;;;;;;;4358053;32;20085;-77
2023/06/13 08:09:18;;;;;;;13.25;5.10;;;;;;;;;;4360408;33;20154;-78
2023/06/13 08:11:44;;;;;;;8.50;4.85;;;;;;;;;;4363409;32;20051;-77
2023/06/13 08:14:12;;;;;;;7.50;3.83;;;;;;;;;;4360407;32;20042;-77
2023/06/13 08:16:38;;;;;;;6.95;4.40;;;;;;;;;;4358953;32;20062;-78
2023/06/13 08:19:04;;;;;;;8.88;5.03;;;;;;;;;;4347054;32;20473;-77
2023/06/13 08:21:29;;;;;;;7.15;4.37;;;;;;;;;;4345793;33;20031;-77
2023/06/13 08:23:55;;;;;;;11.77;4.82;;;;;;;;;;4347412;33;20089;-84
2023/06/13 08:26:20;;;;;;;12.30;5.03;;;;;;;;;;4358684;32;20433;-85
2023/06/13 08:28:46;;;;;;;10.07;4.07;;;;;;;;;;4349964;32;20039;-83
2023/06/13 08:31:12;;;;;;;12.43;5.32;;;;;;;;;;4343961;33;20137;-78
2023/06/13 08:33:38;;;;;;;8.40;4.87;;;;;;;;;;4344573;33;20019;-76
2023/06/13 08:36:04;;;;;;;7.50;5.18;;;;;;;;;;4345982;33;20071;-77
2023/06/13 08:38:29;;;;;;;9.38;4.65;;;;;;;;;;4345430;33;20032;-78
2023/06/13 08:40:54;;;;;;;9.48;4.75;;;;;;;;;;4347519;33;20392;-78
2023/06/13 08:43:20;;;;;;;8.32;5.15;;;;;;;;;;4346623;33;20031;-79
2023/06/13 08:45:45;;;;;;;8.50;4.87;;;;;;;;;;4345965;33;20023;-79
2023/06/13 08:48:10;;;;;;;14.48;4.82;;;;;;;;;;4346477;33;20094;-79
2023/06/13 08:50:36;;;;;;;9.23;5.10;;;;;;;;;;4343862;33;20031;-79
2023/06/13 08:53:01;;;;;;;10.23;5.30;;;;;;;;;;4345023;33;20043;-78
2023/06/13 08:55:27;;;;;;;10.90;4.60;;;;;;;;;;4351852;33;20374;-79
2023/06/13 08:57:53;;;;;;;6.65;4.55;;;;;;;;;;4360837;32;20124;-79
2023/06/13 09:00:19;;;;;;;9.13;5.20;;;;;;;;;;4359027;33;20475;-79
2023/06/13 09:02:45;;;;;;;9.13;4.95;;;;;;;;;;4356472;33;20134;-78
2023/06/13 09:05:13;;;;;;;11.43;4.47;;;;;;;;;;4352358;33;20094;-79
2023/06/13 09:07:39;;;;;;;17.90;5.30;;;;;;;;;;4365696;32;20032;-78
2023/06/13 09:10:04;;;;;;;7.57;4.28;;;;;;;;;;4371856;32;20034;-78
2023/06/13 09:12:30;;;;;;;9.07;4.50;;;;;;;;;;4370825;33;20027;-78
2023/06/13 09:14:55;;;;;;;12.95;4.78;;;;;;;;;;4367465;32;20440;-76
2023/06/13 09:17:20;;;;;;;7.25;4.95;;;;;;;;;;4366146;32;20078;-77
2023/06/13 09:19:47;;;;;;;18.15;4.93;;;;;;;;;;4361743;32;20397;-79
2023/06/13 09:22:14;;;;;;;5.37;4.30;;;;;;;;;;4360925;32;20023;-78
2023/06/13 09:24:39;;;;;;;7.85;4.65;;;;;;;;;;4361470;32;20128;-78
2023/06/13 09:27:06;;;;;;;13.30;4.82;;;;;;;;;;4363584;32;20394;-79
2023/06/13 09:29:35;;;;;;;12.73;4.95;;;;;;;;;;4347993;32;20069;-77
2023/06/13 09:32:00;;;;;;;12.05;4.78;;;;;;;;;;4347688;33;20122;-79
2023/06/13 09:34:26;;;;;;;5.40;4.57;;;;;;;;;;4348648;33;20102;-77
2023/06/13 09:36:51;;;;;;;5.95;4.40;;;;;;;;;;4346654;33;20027;-77
2023/06/13 09:39:16;;;;;;;5.95;4.50;;;;;;;;;;4348134;33;20043;-76
2023/06/13 09:41:42;;;;;;;12.80;5.97;;;;;;;;;;4348531;32;20416;-76
2023/06/13 09:44:07;;;;;;;5.35;4.50;;;;;;;;;;4346374;33;20346;-75
2023/06/13 09:46:33;;;;;;;7.30;4.68;;;;;;;;;;4347300;33;20050;-76
2023/06/13 09:48:58;;;;;;;9.07;6.15;;;;;;;;;;4346330;33;20048;-79
2023/06/13 09:51:25;;;;;;;7.73;5.40;;;;;;;;;;4348121;33;20055;-78
2023/06/13 09:53:51;;;;;;;7.07;4.35;;;;;;;;;;4348904;33;20148;-80
2023/06/13 09:56:16;;;;;;;8.82;4.95;;;;;;;;;;4350792;32;20036;-78
2023/06/13 09:58:41;;;;;;;11.80;4.57;;;;;;;;;;4348393;33;20058;-73
2023/06/13 10:01:12;;;;;;;13.38;4.25;;;;;;;;;;4347647;33;20050;-76
2023/06/13 10:03:37;;;;;;;9.20;4.43;;;;;;;;;;4346173;33;20024;-77
2023/06/13 10:06:02;;;;;;;12.68;5.03;;;;;;;;;;4345905;33;20089;-77
2023/06/13 10:08:28;;;;;;;12.25;4.62;;;;;;;;;;4347898;33;20024;-76
2023/06/13 10:10:53;;;;;;;9.02;4.90;;;;;;;;;;4346927;33;20101;-77
2023/06/13 10:13:21;;;;;;;8.95;4.55;;;;;;;;;;4346280;33;20027;-77
2023/06/13 10:15:57;;;;;;;8.70;4.50;;;;;;;;;;4347309;32;20093;-75
2023/06/13 10:18:27;;;;;;;11.45;5.12;;;;;;;;;;4346058;33;20343;-76
2023/06/13 10:20:53;;;;;;;8.40;4.53;;;;;;;;;;4347025;32;20036;-78
2023/06/13 10:23:20;;;;;;;13.32;5.32;;;;;;;;;;4347569;32;20028;-78
2023/06/13 10:25:50;;;;;;;5.53;4.57;;;;;;;;;;4347669;32;20039;-75
2023/06/13 10:28:21;;;;;;;7.62;5.00;;;;;;;;;;4346469;33;20024;-75
2023/06/13 10:31:00;;;;;;;12.43;4.93;;;;;;;;;;4346048;33;20027;-75
2023/06/13 10:33:39;;;;;;;14.93;5.03;;;;;;;;;;4347288;33;20015;-74
2023/06/13 10:36:04;;;;;;;10.48;4.62;;;;;;;;;;4348534;32;20071;-76
2023/06/13 10:38:48;;;;;;;8.30;4.97;;;;;;;;;;4346850;33;20488;-74
2023/06/13 10:41:32;;;;;;;7.62;4.82;;;;;;;;;;4346921;33;20231;-75
2023/06/13 10:44:00;;;;;;;9.05;4.43;;;;;;;;;;4345653;33;20031;-74
2023/06/13 10:46:25;;;;;;;8.27;5.18;;;;;;;;;;4345301;33;20031;-74
2023/06/13 10:48:52;;;;;;;11.32;4.90;;;;;;;;;;4345052;33;20062;-75
2023/06/13 10:51:21;;;;;;;8.52;5.18;;;;;;;;;;4345036;33;20036;-72
2023/06/13 10:53:50;;;;;;;9.77;5.00;;;;;;;;;;4347383;32;20023;-73
2023/06/13 10:56:16;;;;;;;8.05;4.62;;;;;;;;;;4345256;33;20086;-72
2023/06/13 10:58:42;;;;;;;7.22;5.22;;;;;;;;;;4347421;32;20051;-74
2023/06/13 11:01:26;;;;;;;7.62;5.30;;;;;;;;;;4346912;32;20027;-73
2023/06/13 11:03:52;;;;;;;9.85;4.70;;;;;;;;;;4346221;33;20039;-72
2023/06/13 11:06:17;;;;;;;6.22;4.40;;;;;;;;;;4346039;33;20070;-74
2023/06/13 11:08:42;;;;;;;6.50;4.43;;;;;;;;;;4348264;33;20089;-73
2023/06/13 11:11:08;;;;;;;6.68;4.70;;;;;;;;;;4346907;32;20107;-73
2023/06/13 11:13:34;;;;;;;13.43;4.80;;;;;;;;;;4347588;32;20028;-74
2023/06/13 11:16:34;;;;;;;4.70;4.12;;;;;;;;;;4347843;33;20040;-74
2023/06/13 11:19:04;;;;;;;8.00;4.32;;;;;;;;;;4303394;33;20041;-73
2023/06/13 11:21:30;;;;;;;5.20;4.28;;;;;;;;;;4334946;33;20032;-74
2023/06/13 11:23:56;;;;;;;7.28;4.65;;;;;;;;;;4345501;33;20070;-74
2023/06/13 11:26:21;;;;;;;7.53;4.82;;;;;;;;;;4346688;32;20429;-74
2023/06/13 11:28:50;;;;;;;8.02;7.22;;;;;;;;;;4346486;33;20406;-74
2023/06/13 11:31:16;;;;;;;9.55;4.93;;;;;;;;;;4347502;32;20396;-73
2023/06/13 11:33:45;;;;;;;10.18;4.70;;;;;;;;;;4345463;33;20024;-73
2023/06/13 11:36:10;;;;;;;8.43;4.80;;;;;;;;;;4346319;33;20086;-73
2023/06/13 11:38:42;;;;;;;8.13;5.32;;;;;;;;;;4357564;32;20094;-72
2023/06/13 11:41:08;;;;;;;5.53;4.60;;;;;;;;;;4345435;33;20110;-72
2023/06/13 11:43:34;;;;;;;15.30;4.82;;;;;;;;;;4346196;33;20050;-73
2023/06/13 11:46:00;;;;;;;5.32;4.35;;;;;;;;;;4345833;33;20416;-75
2023/06/13 11:48:25;;;;;;;8.00;4.20;;;;;;;;;;4360176;32;20066;-75
2023/06/13 11:50:50;;;;;;;7.90;5.12;;;;;;;;;;4360492;32;20050;-75
2023/06/13 11:53:17;;;;;;;3.87;3.45;;;;;;;;;;4360892;32;20028;-75
2023/06/13 11:55:42;;;;;;;9.15;4.57;;;;;;;;;;4360105;33;20096;-75
2023/06/13 11:58:07;;;;;;;6.03;3.67;;;;;;;;;;4350264;32;20043;-74
2023/06/13 12:00:55;;;;;;;12.90;4.10;;;;;;;;;;4355976;33;20399;-74
2023/06/13 12:03:22;;;;;;;8.02;4.53;;;;;;;;;;4361778;32;20215;-75
2023/06/13 12:05:47;;;;;;;6.35;3.85;;;;;;;;;;4361074;32;20023;-77
2023/06/13 12:08:13;;;;;;;6.75;4.53;;;;;;;;;;4360551;33;20091;-74
2023/06/13 12:10:38;;;;;;;7.87;4.62;;;;;;;;;;4358167;32;20051;-75
2023/06/13 12:13:03;;;;;;;5.83;4.40;;;;;;;;;;4359075;33;20059;-74
2023/06/13 12:15:28;;;;;;;10.13;4.40;;;;;;;;;;4360541;32;20030;-76
2023/06/13 12:17:59;;;;;;;9.87;4.70;;;;;;;;;;4356164;32;20154;-74
2023/06/13 12:20:24;;;;;;;5.80;4.18;;;;;;;;;;4352774;32;20233;-75
2023/06/13 12:22:59;;;;;;;14.13;4.30;;;;;;;;;;4356048;32;20043;-76
2023/06/13 12:25:26;;;;;;;9.55;4.25;;;;;;;;;;4362683;32;20143;-75
2023/06/13 12:27:51;;;;;;;7.45;5.75;;;;;;;;;;4353217;32;20046;-76
2023/06/13 12:30:17;;;;;;;4.80;3.80;;;;;;;;;;4360214;32;20065;-74
2023/06/13 12:32:43;;;;;;;4.47;3.75;;;;;;;;;;4349172;32;20035;-76
2023/06/13 12:35:09;;;;;;;7.53;3.95;;;;;;;;;;4344550;33;20405;-75
2023/06/13 12:37:37;;;;;;;5.15;3.90;;;;;;;;;;4353796;33;20108;-75
2023/06/13 12:40:09;;;;;;;7.20;4.53;;;;;;;;;;4361507;32;20081;-75
2023/06/13 12:42:35;;;;;;;11.82;4.20;;;;;;;;;;4350074;32;20089;-75
2023/06/13 12:45:00;;;;;;;6.75;4.12;;;;;;;;;;4345225;33;20036;-75
2023/06/13 12:47:26;;;;;;;12.75;5.15;;;;;;;;;;4346930;33;20065;-74
2023/06/13 12:49:51;;;;;;;6.85;3.95;;;;;;;;;;4344064;33;20039;-74
2023/06/13 12:52:16;;;;;;;5.83;4.23;;;;;;;;;;4344705;33;20032;-74
2023/06/13 12:54:42;;;;;;;7.75;4.30;;;;;;;;;;4346353;33;20418;-74
2023/06/13 12:57:08;;;;;;;5.47;4.15;;;;;;;;;;4343566;33;20087;-74
2023/06/13 12:59:38;;;;;;;10.88;4.40;;;;;;;;;;4347534;33;20039;-74
2023/06/13 13:02:05;;;;;;;5.72;4.00;;;;;;;;;;4347932;32;20028;-73
2023/06/13 13:04:31;;;;;;;6.35;4.37;;;;;;;;;;4349107;32;20386;-74
2023/06/13 13:06:56;;;;;;;6.45;4.15;;;;;;;;;;4354411;32;20036;-74
2023/06/13 13:09:23;;;;;;;10.05;4.50;;;;;;;;;;4355616;32;20047;-75
2023/06/13 13:11:48;;;;;;;9.57;4.60;;;;;;;;;;4354030;33;20062;-74
2023/06/13 13:14:13;;;;;;;6.78;4.30;;;;;;;;;;4358959;32;20043;-76
2023/06/13 13:16:38;;;;;;;6.12;3.67;;;;;;;;;;4366508;32;20024;-73
2023/06/13 13:19:04;;;;;;;6.37;4.27;;;;;;;;;;4373537;32;20081;-73
2023/06/13 13:21:29;;;;;;;7.18;4.10;;;;;;;;;;4367311;32;20231;-74
2023/06/13 13:23:55;;;;;;;6.70;3.85;;;;;;;;;;4366155;32;20067;-74
2023/06/13 13:26:20;;;;;;;8.63;4.28;;;;;;;;;;4363679;32;20054;-74
2023/06/13 13:28:46;;;;;;;6.37;3.80;;;;;;;;;;4362735;32;20084;-75
2023/06/13 13:31:11;;;;;;;11.25;4.72;;;;;;;;;;4363635;32;20368;-74
2023/06/13 13:33:36;;;;;;;9.90;4.53;;;;;;;;;;4351315;32;20058;-74
2023/06/13 13:36:01;;;;;;;6.90;4.73;;;;;;;;;;4349949;33;20223;-74
2023/06/13 13:38:26;;;;;;;8.83;4.30;;;;;;;;;;4358072;32;20035;-73
2023/06/13 13:40:53;;;;;;;6.50;4.10;;;;;;;;;;4362371;32;20140;-75
2023/06/13 13:43:19;;;;;;;5.45;4.55;;;;;;;;;;4361992;32;20031;-76
2023/06/13 13:45:44;;;;;;;5.60;3.85;;;;;;;;;;4362868;32;20092;-75
2023/06/13 13:48:12;;;;;;;8.68;5.25;;;;;;;;;;4366089;32;20062;-74
2023/06/13 13:50:37;;;;;;;7.72;4.30;;;;;;;;;;4358043;32;20307;-75
2023/06/13 13:53:02;;;;;;;8.25;4.60;;;;;;;;;;4348544;32;20047;-76
2023/06/13 13:55:28;;;;;;;6.97;4.20;;;;;;;;;;4348112;32;20054;-75
2023/06/13 13:57:53;;;;;;;5.65;4.35;;;;;;;;;;4347001;33;20043;-75
2023/06/13 14:00:18;;;;;;;6.12;4.40;;;;;;;;;;4347965;33;20099;-75
2023/06/13 14:02:44;;;;;;;8.52;4.40;;;;;;;;;;4347194;33;20448;-75
2023/06/13 14:05:09;;;;;;;6.87;4.70;;;;;;;;;;4345947;33;20458;-74
2023/06/13 14:07:34;;;;;;;8.85;4.55;;;;;;;;;;4347156;33;20088;-75
2023/06/13 14:09:59;;;;;;;9.13;4.70;;;;;;;;;;4348238;32;20032;-75
2023/06/13 14:12:25;;;;;;;8.43;4.12;;;;;;;;;;4353120;33;20031;-74
2023/06/13 14:14:50;;;;;;;7.30;3.92;;;;;;;;;;4360146;32;20040;-75
2023/06/13 14:17:15;;;;;;;6.87;4.50;;;;;;;;;;4350077;32;20418;-75
2023/06/13 14:19:40;;;;;;;6.97;3.83;;;;;;;;;;4345881;33;20155;-75
2023/06/13 14:22:05;;;;;;;5.27;4.10;;;;;;;;;;4348650;32;20023;-76
2023/06/13 14:24:31;;;;;;;7.40;4.80;;;;;;;;;;4346679;32;20170;-75
2023/06/13 14:26:56;;;;;;;9.93;4.40;;;;;;;;;;4355713;32;20027;-75
2023/06/13 14:29:21;;;;;;;6.80;4.37;;;;;;;;;;4363648;32;20023;-76
2023/06/13 14:31:46;;;;;;;9.40;4.20;;;;;;;;;;4362443;32;20194;-76
2023/06/13 14:34:13;;;;;;;11.00;4.60;;;;;;;;;;4363654;32;20095;-76